Carencro, LA (70520)

8:41 PM CDT on July 24, 2016 (GMT -0500)
APRSWXNET | | Change Station

Elev 45 ft 30.33 °N, 92.05 °W | Updated 48 minutes ago

Clear
Clear
80 °F
Feels Like 84 °F
N
0
Wind Variable Wind from WSW
Gusts 0.0 mph

Today
High -- | Low -- °F
--% Chance of Precip.
Yesterday
High -- | Low -- °F
Precip. -- in
Pressure 29.94 in
Visibility 10.0 miles
Clouds Clear
Heat Index 84 °F
Dew Point 71 °F
Humidity 75%
Rainfall in
Snow Depth Not available.
6:22 AM 8:06 PM
Waning Gibbous, 71% visible
METAR KLFT 250053Z 00000KT 10SM CLR 28/24 A2994 RMK AO2 SLP139 T02830244 $
Pressure 29.94 in
Visibility 10.0 miles
Clouds Clear
Heat Index 84 °F
Dew Point 71 °F
Humidity 75%
Rainfall in
Snow Depth Not available.
6:22 AM 8:06 PM
Waning Gibbous, 71% visible
METAR KLFT 250053Z 00000KT 10SM CLR 28/24 A2994 RMK AO2 SLP139 T02830244 $

10-Day Weather Forecast

Almanac

Astronomy

Jul. 24, 2016 Rise Set
Actual Time
Civil Twilight
Nautical Twilight
Astronomical Twilight
Moon
Length of Visible Light
Length of Day
Tomorrow will be .
, % of the Moon is Illuminated

Today's Extremes

State Highs State Lows

Community

WunderPhotos

Upload Photos

1,927,233 photos uploaded!

WunderBlog® & News

Nearby

Air Quality

  Air Quality AQ Index Pollutant
Not available.

Snow Depth

Station Depth Elevation

Earthquake Activity

City Distance Mag. Time & Date
Minimum magnitude displayed is 2.5.

Coastal Water Temperatures

Place Temperature

Stations

Nearby Weather Stations

Station Location Temp. Windchill Dew Point Humidity Wind Precip. Elev Updated Type
                   

Watches & Warnings

There are currently no watches in effect.